Terminal Aerodrome Forecast
Issued by NWS

Home | Current Version | Previous Version | Text Only | Print | Product List | Glossary On
Versions: 1 2 3 4 5 6 7 8 9 10 11 12 13 14
000
FTUS44 KOUN 240537
TAFLAW
TAF
KLAW 240537Z 2406/2506 16019G27KT P6SM FEW060 BKN100
     FM240800 16015KT P6SM FEW025
     FM241000 16014KT P6SM BKN020
     FM241400 34023G34KT P6SM FEW030 SCT250
     FM250000 36010KT P6SM SCT250=

USA.gov is the U.S. government's official web portal to all federal, state and local government web resources and services.